Wildwood Lake, Indiana
Current Conditions -  °F | °C
As of 8:15 AM on Friday 24 Oct 2014 (Local Time) from KHNB Reporting Station
Overcast Overcast  
Wind Chill:   Ceiling: 3400
Heat Index:   Visibility: 5mi
Dew Point:   Wind: 0mph
Humidity: 81%   Direction: NA
Pressure: 30.13"   Gusts: NA
Location:  38.5454°N, 86.4243°W
Report Text: KHNB 241215Z AUTO 00000KT 5SM OVC034 07/04 A3013 RMK AO1
Loading
Personal Weather Stations






























Interactive Weather Map
Tropical Storm Tracking
New forecast layout! Learn more

10-Day Weather Forecast

Advertisements
Track Severe Weather on mobile